AirNav   Phillips 66 Aviation Fuel
 
 905 users online  

06A Moton Field Municipal Airport
Tuskegee, Alabama, USA

GOING TO TUSKEGEE?


FAA INFORMATION EFFECTIVE 14 SEPTEMBER 2017

Location

FAA Identifier: 06A
Lat/Long: 32-27-37.7000N / 085-40-48.1000W
32-27.628333N / 085-40.801667W
32.4604722 / -85.6800278
(estimated)
Elevation: 264 ft. / 80.5 m (surveyed)
Variation: 03W (2010)
From city: 3 miles N of TUSKEGEE, AL
Time zone: UTC -5 (UTC -6 during Standard Time)
Zip code: 36083

Airport Operations

Airport use: Open to the public
Activation date: 11/1941
Control tower: no
ARTCC: ATLANTA CENTER
FSS: ANNISTON FLIGHT SERVICE STATION
NOTAMs facility: ANB (NOTAM-D service available)
Attendance: MON-FRI 0730-1700, ALL SAT-SUN 0730-1700
Wind indicator: lighted
Segmented circle: yes
Lights: ACTVT MIRL RY 13/31 AND PAPI RYS 13 & 31 - CTAF.
Beacon: white-green (lighted land airport)
Operates sunset to sunrise.

Airport Communications

CTAF/UNICOM: 122.8
ATLANTA APPROACH: 125.5 126.55 7000 & ABV
ATLANTA DEPARTURE: 125.5 126.55 7000 & ABV
WX AWOS-3PT at AUO (16 nm NE): 132.575 (334-821-4932)
  • APCH/DEP SVC PROVIDED BY ATLANTA LARGE TRACON 125.5 (0515-2200) OTHER TIMES ATLANTA CENTER 120.45/298.850 (COLUMBUS RCAG).

Nearby radio navigation aids

VOR radial/distance  VOR name  Freq  Var
TGEr198/1.6TUSKEGEE VOR/DME117.3002E
CSGr254/34.8COLUMBUS VORTAC117.1001E
MGMr063/35.4MONTGOMERY VORTAC112.1003E
LSFr284/35.6LAWSON VOR/DME111.4002W

 
NDB name  Hdg/Dist  Freq  Var  ID
LAWSON289/34.833502WAWS .- .-- ...

Airport Services

Fuel available: 100LL JET-A+
Parking: hangars and tiedowns
Airframe service: MAJOR
Powerplant service: MAJOR
Bottled oxygen: NONE
Bulk oxygen: HIGH/LOW

Runway Information

Runway 13/31

Dimensions: 5005 x 100 ft. / 1526 x 30 m
Surface: asphalt, in good condition
Weight bearing capacity: 
Single wheel: 28.5
Runway edge lights: medium intensity
RUNWAY 13  RUNWAY 31
Latitude: 32-27.886912N32-27.369283N
Longitude: 085-41.181352W085-40.423030W
Elevation: 263.9 ft.263.8 ft.
Traffic pattern: leftleft
Runway heading: 132 magnetic, 129 true312 magnetic, 309 true
Markings: nonprecision, in good conditionnonprecision, in good condition
Visual slope indicator: 2-light PAPI on left (3.00 degrees glide path)2-light PAPI on left (3.00 degrees glide path)
Touchdown point: yes, no lightsyes, no lights
Obstructions: 19 ft. brush, 678 ft. from runway, 64 ft. left of centerline, 25:1 slope to clear48 ft. trees, 1269 ft. from runway, 353 ft. right of centerline, 22:1 slope to clear

Airport Ownership and Management from official FAA records

Ownership: Publicly-owned
Owner: CITY OF TUSKEGEE
101 FONVILLE ST
TUSKEGEE, AL 36083
Phone 334-727-2180
Manager: THOMAS DAY
1721 GENERAL B.O. DAVIS DRIVE
TUSKEGEE, AL 36083
Phone 334-727-6485
AFTER HOURS FUEL CALL 334-727-6485.

Airport Operational Statistics

Aircraft based on the field: 13
Single engine airplanes: 13
    
Aircraft operations: avg 53/day *
66% transient general aviation
34% local general aviation
* for 12-month period ending 09 December 2009

Additional Remarks

PARALLEL TWY LGTD FULL LENGTH.
WILDLIFE ON & INVOF ARPT.

Instrument Procedures

NOTE: All procedures below are presented as PDF files. If you need a reader for these files, you should download the free Adobe Reader.

NOT FOR NAVIGATION. Please procure official charts for flight.
FAA instrument procedures published for use between 14 September 2017 at 0901Z and 12 October 2017 at 0900Z.

 
IAPs - Instrument Approach Procedures
RNAV (GPS) RWY 13   download (231KB)
RNAV (GPS) RWY 31   download (213KB)
VOR-A   download (174KB)
NOTE: Special Take-Off Minimums/Departure Procedures apply   download (189KB)

Other nearby airports with instrument procedures:

KAUO - Auburn University Regional Airport (16 nm NE)
KALX - Thomas C Russell Field Airport (31 nm NW)
7A3 - Lanett Municipal Airport (31 nm NE)
08A - Wetumpka Municipal Airport (33 nm W)
KMXF - Maxwell Air Force Base (35 nm W)
 
Loc | Ops | Rwys | IFR | FBO | Links
Com | Nav | Svcs | Stats | Notes


 
Area around 06A (Moton Field Municipal Airport)
 
Road maps at: MapQuest Bing Google
 
Aerial photo
WARNING: Photo may not be current or correct
Aerial photo of 06A (Moton Field Municipal Airport)
Photo courtesy of Golden Eagle Aviation
Photo taken 23-Dec-2010
looking northwest.

Do you have a better or more recent aerial photo of Moton Field Municipal Airport that you would like to share? If so, please send us your photo.

 
Sectional chart

 
Airport diagram
CAUTION: Diagram may not be current
Diagram of 06A (Moton Field Municipal Airport)
 
Airport distance calculator
Flying to Moton Field Municipal Airport? Find the distance to fly.

From to 06A

Sunrise and sunset
Times for 20-Sep-2017
 Local
(UTC-5)
 Zulu
(UTC)
Morning civil twilight06:0611:06
Sunrise06:3111:31
Sunset18:4223:42
Evening civil twilight19:0600:06

Current date and time
Zulu (UTC)  21-Sep-2017 02:08:26
Local (UTC-5)  20-Sep-2017 21:08:26
 
METAR
KALX 
31nm NW 
210155Z AUTO 00000KT 10SM CLR 23/22 A3004 RMK AO2 T02260220
TAF
KMXF 
35nm W 
201900Z 2019/2201 33006KT 9999 FEW035 SCT070 QNH2992INS BECMG 2108/2109 30003KT 8000 BR SCT030 QNH2995INS TEMPO 2110/2113 3200 BR BECMG 2112/2113 33006KT 9999 NSW SKC QNH3002INS TX32/2021Z TN20/2110Z LAST NO AMDS AFT 2103 NEXT 2111
KLSF 
36nm E 
202208Z 2022/2123 33006KT 9999 SCT050 SCT100 QNH2993INS TEMPO 2022/2101 4800 -SHRA BKN050 BECMG 2100/2101 30006KT 9999 FEW030 SCT050 QNH2992INS BECMG 2108/2109 VRB06KT 6000 BR SCT030 BKN050 QNH2992INS BECMG 2111/2112 01006KT 9999 NSW SCT030 BKN050 QNH2994INS TX32/2022Z TN20/2110Z
KCSG 
37nm E 
201742Z 2018/2118 31006KT P6SM SCT050 FM210100 00000KT P6SM FEW250 FM211300 03004KT P6SM FEW250 FM211700 04006KT P6SM SCT050
KMGM 
38nm W 
201726Z 2018/2118 32004KT P6SM SCT030 FM210000 00000KT P6SM SKC
KTOI 
40nm SW 
201726Z 2018/2118 32004KT P6SM SCT030 TEMPO 2018/2019 BKN025 FM210800 00000KT 4SM BR SKC
NOTAMs
Click for the latest NOTAMs
NOTAMs are issued by the DoD/FAA and will open in a separate window not controlled by AirNav.

 

 
 

FBO, Fuel Providers, and Aircraft Ground Support

  
 Business Name 
 
 Contact 
 
 Services / Description 
 
Fuel Prices
 
Comments
  
Golden Eagle Aviation UNICOM 122.80
334-727-6485
[web site]
[email]
Aviation fuel, Aircraft parking (ramp or tiedown), Passenger terminal and lounge, Aircraft cleaning / washing / detailing, Catering, Pilot supplies, Rental cars, ...
More info and photos of Golden Eagle Aviation
 
AirBoss™ fuel program   CAA Preferred FBO  
 
Shell
100LL Jet A
FS $3.50 $3.00 
GUARANTEED
AirBossMEMBER
PRICING
FS $3.49 $2.99 
 
   19 read write
FS=Full service
Update Fuel Prices
 

Would you like to see your business listed on this page?

 If your business provides an interesting product or service to pilots, flight crews, aircraft, or users of the Moton Field Municipal Airport, you should consider listing it here.  To start the listing process, click on the button below
 
Add a business
 

Other Pages about Moton Field Municipal Airport

Tuskegee Airmen National Historic Site page from the National Park Service
 
Update a link
 
Copyright © AirNav, LLC. All rights reserved. Privacy Policy  Contact